createdAt,value
2022-11-11T00:01:49.760Z,27.70
2022-11-11T00:04:37.498Z,26.40
2022-11-11T00:07:25.159Z,32.00
2022-11-11T00:10:13.481Z,24.30
2022-11-11T00:13:03.268Z,32.70
2022-11-11T00:15:51.760Z,26.00
2022-11-11T00:18:59.750Z,23.40
2022-11-11T00:21:47.332Z,26.00
2022-11-11T00:24:53.604Z,23.50
2022-11-11T00:27:41.517Z,24.10
2022-11-11T00:30:31.875Z,23.80
2022-11-11T00:33:19.533Z,23.40
2022-11-11T00:36:08.464Z,26.80
2022-11-11T00:38:58.433Z,26.50
2022-11-11T00:41:46.542Z,27.40
2022-11-11T00:44:33.884Z,19.20
2022-11-11T00:47:40.734Z,23.90
2022-11-11T00:50:48.563Z,29.00
2022-11-11T00:53:39.116Z,19.80
2022-11-11T00:56:29.600Z,19.70
2022-11-11T00:59:20.053Z,22.70
2022-11-11T01:02:08.236Z,25.00
2022-11-11T01:04:58.740Z,31.50
2022-11-11T01:07:52.035Z,29.60
2022-11-11T01:10:42.938Z,26.40
2022-11-11T01:13:33.857Z,27.80
2022-11-11T01:16:26.151Z,26.80
2022-11-11T01:19:14.790Z,22.00
2022-11-11T01:22:03.376Z,19.10
2022-11-11T01:24:53.617Z,20.70
2022-11-11T01:27:41.534Z,20.80
2022-11-11T01:30:29.083Z,20.10
2022-11-11T01:33:16.771Z,25.30
2022-11-11T01:36:28.605Z,23.20
2022-11-11T01:39:16.598Z,18.60
2022-11-11T01:42:04.251Z,20.60
2022-11-11T01:44:52.250Z,20.50
2022-11-11T01:48:23.441Z,19.00
2022-11-11T01:51:29.552Z,24.30
2022-11-11T01:54:53.230Z,23.00
2022-11-11T01:57:57.945Z,22.30
2022-11-11T02:00:46.073Z,19.60
2022-11-11T02:03:40.529Z,25.60
2022-11-11T02:06:29.731Z,28.20
2022-11-11T02:09:17.755Z,26.70
2022-11-11T02:12:28.670Z,21.90
2022-11-11T02:15:16.796Z,27.80
2022-11-11T02:18:05.961Z,27.70
2022-11-11T02:20:57.890Z,20.10
2022-11-11T02:24:17.828Z,22.40
2022-11-11T02:27:07.359Z,22.60
2022-11-11T02:29:58.279Z,26.70
2022-11-11T02:32:50.348Z,26.50
2022-11-11T02:35:55.380Z,21.60
2022-11-11T02:38:43.733Z,22.50
2022-11-11T02:41:50.422Z,18.80
2022-11-11T02:44:38.292Z,20.40
2022-11-11T02:47:28.022Z,21.70
2022-11-11T02:50:17.204Z,21.30
2022-11-11T02:53:05.184Z,17.50
2022-11-11T02:55:55.476Z,23.40
2022-11-11T02:58:44.338Z,20.50
2022-11-11T03:01:31.715Z,20.60
2022-11-11T03:04:19.493Z,17.20
2022-11-11T03:07:07.603Z,19.30
2022-11-11T03:09:58.749Z,23.60
2022-11-11T03:12:53.847Z,24.80
2022-11-11T03:15:48.371Z,27.80
2022-11-11T03:18:37.550Z,29.10
2022-11-11T03:22:49.624Z,25.20
2022-11-11T03:24:57.105Z,21.90
2022-11-11T03:27:46.199Z,25.80
2022-11-11T03:30:33.763Z,25.70
2022-11-11T03:33:21.891Z,18.10
2022-11-11T03:36:09.904Z,19.60
2022-11-11T03:38:57.324Z,20.70
2022-11-11T03:41:44.826Z,16.90
2022-11-11T03:44:32.715Z,18.20
2022-11-11T03:47:21.194Z,17.60
2022-11-11T03:50:09.429Z,19.50
2022-11-11T03:53:00.822Z,22.10
2022-11-11T03:55:50.538Z,17.60
2022-11-11T03:58:38.361Z,18.60
2022-11-11T04:01:44.742Z,17.70
2022-11-11T04:04:51.059Z,15.70
2022-11-11T04:07:58.638Z,17.80
2022-11-11T04:10:46.841Z,13.90
2022-11-11T04:13:54.316Z,12.50
2022-11-11T04:16:41.795Z,21.10
2022-11-11T04:19:47.560Z,14.90
2022-11-11T04:22:42.107Z,18.40
2022-11-11T04:25:48.085Z,16.80
2022-11-11T04:29:14.375Z,15.70
2022-11-11T04:32:25.180Z,17.90
2022-11-11T04:35:14.650Z,18.20
2022-11-11T04:38:20.937Z,15.30
2022-11-11T04:41:11.393Z,12.20
2022-11-11T04:44:17.868Z,16.50
2022-11-11T04:47:09.712Z,15.60
2022-11-11T04:49:58.871Z,15.70
2022-11-11T04:52:55.610Z,17.90
2022-11-11T04:56:05.437Z,15.10
2022-11-11T04:59:13.543Z,16.90
2022-11-11T05:02:32.804Z,14.70
2022-11-11T05:05:20.700Z,15.60
2022-11-11T05:08:27.027Z,15.90
2022-11-11T05:11:15.699Z,16.40
2022-11-11T05:14:24.823Z,20.70
2022-11-11T05:17:31.163Z,15.80
2022-11-11T05:20:39.165Z,19.30
2022-11-11T05:23:47.090Z,19.80
2022-11-11T05:26:37.644Z,17.70
2022-11-11T05:29:25.178Z,20.90
2022-11-11T05:32:18.651Z,18.90
2022-11-11T05:35:07.028Z,20.70
2022-11-11T05:38:12.850Z,20.10
2022-11-11T05:41:00.137Z,22.50
2022-11-11T05:43:48.071Z,17.40
2022-11-11T05:46:36.098Z,17.00
2022-11-11T05:49:25.253Z,21.30
2022-11-11T05:52:16.613Z,21.10
2022-11-11T05:55:05.098Z,17.50
2022-11-11T05:57:53.110Z,16.10
2022-11-11T06:00:41.062Z,16.60
2022-11-11T06:03:28.388Z,19.30
2022-11-11T06:06:16.143Z,13.30
2022-11-11T06:09:07.078Z,19.00
2022-11-11T06:11:56.124Z,20.60
2022-11-11T06:14:43.956Z,15.50
2022-11-11T06:17:34.139Z,16.00
2022-11-11T06:20:48.041Z,18.10
2022-11-11T06:23:35.695Z,18.10
2022-11-11T06:26:25.905Z,17.40
2022-11-11T06:29:17.200Z,13.60
2022-11-11T06:32:09.402Z,18.00
2022-11-11T06:34:57.510Z,14.90
2022-11-11T06:37:45.229Z,18.80
2022-11-11T06:40:33.424Z,28.80
2022-11-11T06:43:25.731Z,25.20
2022-11-11T06:46:23.550Z,24.40
2022-11-11T06:49:11.198Z,27.10
2022-11-11T06:52:00.845Z,31.70
2022-11-11T06:54:48.289Z,18.20
2022-11-11T06:57:37.556Z,19.40
2022-11-11T07:00:25.581Z,16.30
2022-11-11T07:03:20.290Z,15.40
2022-11-11T07:06:10.638Z,131.60
2022-11-11T07:08:58.373Z,35.20
2022-11-11T07:11:45.981Z,18.90
2022-11-11T07:14:35.487Z,24.10
2022-11-11T07:17:23.377Z,22.10
2022-11-11T07:20:12.082Z,17.00
2022-11-11T07:23:00.344Z,18.30
2022-11-11T07:25:47.973Z,25.50
2022-11-11T07:28:35.806Z,18.00
2022-11-11T07:31:23.821Z,17.50
2022-11-11T07:34:11.629Z,18.60
2022-11-11T07:36:59.338Z,20.40
2022-11-11T07:39:46.773Z,18.60
2022-11-11T07:42:38.870Z,21.00
2022-11-11T07:45:26.285Z,18.50
2022-11-11T07:48:18.248Z,19.40
2022-11-11T07:51:11.822Z,17.90
2022-11-11T07:54:03.161Z,12.10
2022-11-11T07:56:51.000Z,16.90
2022-11-11T07:59:50.720Z,13.60
2022-11-11T08:02:46.532Z,18.10
2022-11-11T08:05:34.778Z,17.60
2022-11-11T08:08:29.977Z,21.90
2022-11-11T08:11:38.318Z,21.30
2022-11-11T08:14:28.633Z,22.30
2022-11-11T08:17:16.268Z,17.70
2022-11-11T08:20:07.599Z,21.80
2022-11-11T08:23:28.391Z,22.20
2022-11-11T08:26:15.588Z,16.50
2022-11-11T08:29:05.472Z,19.90
2022-11-11T08:31:53.786Z,18.50
2022-11-11T08:34:46.595Z,22.00
2022-11-11T08:37:42.113Z,15.10
2022-11-11T08:40:30.049Z,15.10
2022-11-11T08:43:31.545Z,20.10
2022-11-11T08:46:22.656Z,19.10
2022-11-11T08:49:12.678Z,14.00
2022-11-11T08:52:00.986Z,15.20
2022-11-11T08:58:01.092Z,20.20
2022-11-11T09:00:52.870Z,20.40
2022-11-11T09:03:55.711Z,19.00
2022-11-11T09:07:09.474Z,16.50
2022-11-11T09:09:57.203Z,18.10
2022-11-11T09:12:45.018Z,15.20
2022-11-11T09:15:34.743Z,16.00
2022-11-11T09:18:22.591Z,17.40
2022-11-11T09:21:12.800Z,15.90
2022-11-11T09:24:04.335Z,17.20
2022-11-11T09:26:54.870Z,14.00
2022-11-11T09:29:46.693Z,21.50
2022-11-11T09:32:38.189Z,17.20
2022-11-11T09:35:40.223Z,59.20
2022-11-11T09:38:36.947Z,16.00
2022-11-11T09:41:57.419Z,20.90
2022-11-11T09:45:33.553Z,24.30
2022-11-11T09:48:34.661Z,23.70
2022-11-11T09:51:32.940Z,18.90
2022-11-11T09:54:50.573Z,19.20
2022-11-11T09:58:01.271Z,22.70
2022-11-11T10:01:14.745Z,26.30
2022-11-11T10:04:29.871Z,18.50
2022-11-11T10:07:41.508Z,20.70
2022-11-11T10:10:51.817Z,18.00
2022-11-11T10:13:44.399Z,18.30
2022-11-11T10:17:31.723Z,16.80
2022-11-11T10:20:45.989Z,18.30
2022-11-11T10:23:52.646Z,17.90
2022-11-11T10:26:50.460Z,19.40
2022-11-11T10:29:59.703Z,18.40
2022-11-11T10:33:15.060Z,17.60
2022-11-11T10:36:14.918Z,18.80
2022-11-11T10:39:36.295Z,20.50
2022-11-11T10:42:24.289Z,16.10
2022-11-11T10:49:00.926Z,20.90
2022-11-11T10:52:08.470Z,24.00
2022-11-11T10:55:07.004Z,28.80
2022-11-11T10:58:07.615Z,20.50
2022-11-11T11:00:57.913Z,28.20
2022-11-11T11:03:55.744Z,23.50
2022-11-11T11:06:48.560Z,25.90
2022-11-11T11:09:45.988Z,25.30
2022-11-11T11:13:12.424Z,16.70
2022-11-11T11:16:15.038Z,21.60
2022-11-11T11:19:19.153Z,17.30
2022-11-11T11:22:06.769Z,34.30
2022-11-11T11:25:13.357Z,18.80
2022-11-11T11:28:15.686Z,19.90
2022-11-11T11:31:08.150Z,34.50
2022-11-11T11:33:57.200Z,27.50
2022-11-11T11:37:00.104Z,19.00
2022-11-11T11:39:49.209Z,15.70
2022-11-11T11:42:42.519Z,21.20
2022-11-11T11:45:33.525Z,21.20
2022-11-11T11:49:01.960Z,21.10
2022-11-11T11:52:02.566Z,18.00
2022-11-11T11:55:18.111Z,18.60
2022-11-11T11:58:15.186Z,19.30
2022-11-11T12:01:08.254Z,17.60
2022-11-11T12:04:39.560Z,17.50
2022-11-11T12:07:42.945Z,17.10
2022-11-11T12:11:19.021Z,17.00
2022-11-11T12:14:42.230Z,19.40
2022-11-11T12:17:59.325Z,17.00
2022-11-11T12:21:17.773Z,18.40
2022-11-11T12:24:31.518Z,23.80
2022-11-11T12:27:56.598Z,15.60
2022-11-11T12:31:20.007Z,17.90
2022-11-11T12:34:29.050Z,15.60
2022-11-11T12:37:54.400Z,15.30
2022-11-11T12:40:57.923Z,19.50
2022-11-11T12:44:10.746Z,19.90
2022-11-11T12:47:39.862Z,15.40
2022-11-11T12:51:02.895Z,14.40
2022-11-11T12:54:33.446Z,19.50
2022-11-11T12:58:01.959Z,19.10
2022-11-11T13:01:17.979Z,12.20
2022-11-11T13:04:31.274Z,16.60
2022-11-11T13:08:23.990Z,16.10
2022-11-11T13:11:38.367Z,16.10
2022-11-11T13:14:50.844Z,17.70
2022-11-11T13:17:38.683Z,15.90
2022-11-11T13:20:51.734Z,25.90
2022-11-11T13:23:40.774Z,20.20
2022-11-11T13:26:49.926Z,18.80
2022-11-11T13:29:51.042Z,19.00
2022-11-11T13:33:03.574Z,20.50
2022-11-11T13:39:00.699Z,18.10
2022-11-11T13:41:53.790Z,12.80
2022-11-11T13:44:57.673Z,20.10
2022-11-11T13:47:48.450Z,18.80
2022-11-11T13:50:56.775Z,13.90
2022-11-11T13:56:46.413Z,14.60
2022-11-11T13:59:46.901Z,11.80
2022-11-11T14:02:37.647Z,14.90
2022-11-11T14:05:27.338Z,17.80
2022-11-11T14:08:47.371Z,18.40
2022-11-11T14:11:37.562Z,13.80
2022-11-11T14:14:37.104Z,16.70
2022-11-11T14:17:30.789Z,22.90
2022-11-11T14:20:30.656Z,27.20
2022-11-11T14:23:18.664Z,26.70
2022-11-11T14:26:06.931Z,19.50
2022-11-11T14:29:07.227Z,24.00
2022-11-11T14:32:17.104Z,24.40
2022-11-11T14:35:28.138Z,27.10
2022-11-11T14:38:34.430Z,26.30
2022-11-11T14:41:43.740Z,30.80
2022-11-11T14:44:36.800Z,31.10
2022-11-11T14:47:42.006Z,33.60
2022-11-11T14:50:32.992Z,28.80
2022-11-11T14:53:49.609Z,29.80
2022-11-11T14:56:43.821Z,44.30
2022-11-11T14:59:32.813Z,44.60
2022-11-11T15:02:42.056Z,41.80
2022-11-11T15:05:50.140Z,43.40
2022-11-11T15:09:15.771Z,43.10
2022-11-11T15:12:24.462Z,40.60
2022-11-11T15:15:42.793Z,37.20
2022-11-11T15:19:02.395Z,27.10
2022-11-11T15:22:39.443Z,31.00
2022-11-11T15:26:05.958Z,26.60
2022-11-11T15:29:47.657Z,31.30
2022-11-11T15:33:04.918Z,31.30
2022-11-11T15:36:29.422Z,30.50
2022-11-11T15:39:23.237Z,26.40
2022-11-11T15:42:28.362Z,20.60
2022-11-11T15:45:32.728Z,24.60
2022-11-11T15:48:30.010Z,28.70
2022-11-11T15:51:23.141Z,33.30
2022-11-11T15:54:20.373Z,25.80
2022-11-11T15:57:36.776Z,29.10
2022-11-11T16:00:28.861Z,23.60
2022-11-11T16:06:38.668Z,28.90
2022-11-11T16:09:33.725Z,29.20
2022-11-11T16:12:33.317Z,32.40
2022-11-11T16:15:45.906Z,28.20
2022-11-11T16:19:05.089Z,26.90
2022-11-11T16:22:11.596Z,25.40
2022-11-11T16:25:05.628Z,29.10
2022-11-11T16:28:07.240Z,36.30
2022-11-11T16:30:56.803Z,45.10
2022-11-11T16:33:45.293Z,36.00
2022-11-11T16:36:35.665Z,32.80
2022-11-11T16:39:27.899Z,35.00
2022-11-11T16:42:29.950Z,30.60
2022-11-11T16:45:23.944Z,35.90
2022-11-11T16:48:44.641Z,30.60
2022-11-11T16:51:50.680Z,27.00
2022-11-11T16:54:57.799Z,27.10
2022-11-11T16:57:46.709Z,26.30
2022-11-11T17:00:40.763Z,30.60
2022-11-11T17:03:35.582Z,40.30
2022-11-11T17:07:02.479Z,48.10
2022-11-11T17:09:50.604Z,42.80
2022-11-11T17:12:39.615Z,55.40
2022-11-11T17:15:31.588Z,69.80
2022-11-11T17:18:20.278Z,45.20
2022-11-11T17:21:08.362Z,46.70
2022-11-11T17:23:56.314Z,52.10
2022-11-11T17:26:52.120Z,56.10
2022-11-11T17:29:45.918Z,46.20
2022-11-11T17:33:02.735Z,52.90
2022-11-11T17:35:55.175Z,57.90
2022-11-11T17:38:51.719Z,57.80
2022-11-11T17:41:50.155Z,90.50
2022-11-11T17:44:38.387Z,103.60
2022-11-11T17:47:35.898Z,88.60
2022-11-11T17:50:27.369Z,64.90
2022-11-11T17:53:18.888Z,59.50
2022-11-11T17:56:17.377Z,52.50
2022-11-11T17:59:25.795Z,40.80
2022-11-11T18:02:22.626Z,42.30
2022-11-11T18:05:11.056Z,38.80
2022-11-11T18:08:06.440Z,41.30
2022-11-11T18:11:11.524Z,41.90
2022-11-11T18:14:01.583Z,40.20
2022-11-11T18:16:49.715Z,42.70
2022-11-11T18:20:03.775Z,41.80
2022-11-11T18:22:58.314Z,32.80
2022-11-11T18:25:46.646Z,37.70
2022-11-11T18:28:37.909Z,42.20
2022-11-11T18:31:30.769Z,38.80
2022-11-11T18:34:29.420Z,41.30
2022-11-11T18:37:24.838Z,35.00
2022-11-11T18:40:23.877Z,34.20
2022-11-11T18:43:11.958Z,30.00
2022-11-11T18:46:07.825Z,31.10
2022-11-11T18:49:02.617Z,32.40
2022-11-11T18:51:53.739Z,34.60
2022-11-11T18:54:41.763Z,30.20
2022-11-11T18:57:36.789Z,33.70
2022-11-11T19:00:29.249Z,31.10
2022-11-11T19:03:22.285Z,34.90
2022-11-11T19:06:14.261Z,31.20
2022-11-11T19:09:42.125Z,35.00
2022-11-11T19:12:30.525Z,29.70
2022-11-11T19:15:18.426Z,30.60
2022-11-11T19:18:06.810Z,36.50
2022-11-11T19:20:55.038Z,32.60
2022-11-11T19:23:46.377Z,36.10
2022-11-11T19:26:38.165Z,38.60
2022-11-11T19:29:26.199Z,36.40
2022-11-11T19:32:14.458Z,33.50
2022-11-11T19:35:02.712Z,32.40
2022-11-11T19:38:23.833Z,34.80
2022-11-11T19:41:27.142Z,39.10
2022-11-11T19:44:18.934Z,37.40
2022-11-11T19:47:17.846Z,33.70
2022-11-11T19:53:57.298Z,37.00
2022-11-11T19:57:11.347Z,33.40
2022-11-11T19:59:59.739Z,37.10
2022-11-11T20:02:50.378Z,40.10
2022-11-11T20:05:44.675Z,44.00
2022-11-11T20:08:36.883Z,44.10
2022-11-11T20:11:32.691Z,47.10
2022-11-11T20:14:25.905Z,38.00
2022-11-11T20:17:18.510Z,39.80
2022-11-11T20:20:12.708Z,43.20
2022-11-11T20:23:07.343Z,46.60
2022-11-11T20:26:03.635Z,42.10
2022-11-11T20:28:59.190Z,47.00
2022-11-11T20:31:49.569Z,43.30
2022-11-11T20:34:45.895Z,42.80
2022-11-11T20:37:40.346Z,51.20
2022-11-11T20:40:31.801Z,49.90
2022-11-11T20:43:31.739Z,52.00
2022-11-11T20:46:26.843Z,67.80
2022-11-11T20:49:18.628Z,60.80
2022-11-11T20:52:16.256Z,52.20
2022-11-11T20:55:13.313Z,64.30
2022-11-11T20:58:04.017Z,75.60
2022-11-11T21:01:22.193Z,69.40
2022-11-11T21:04:11.280Z,67.40
2022-11-11T21:07:13.234Z,118.70
2022-11-11T21:10:37.796Z,111.60
2022-11-11T21:13:34.289Z,119.10
2022-11-11T21:16:47.051Z,110.00
2022-11-11T21:20:11.529Z,112.00
2022-11-11T21:23:16.373Z,116.40
2022-11-11T21:26:08.536Z,123.10
2022-11-11T21:28:57.997Z,125.30
2022-11-11T21:31:52.973Z,121.20
2022-11-11T21:34:45.738Z,122.10
2022-11-11T21:37:35.504Z,123.40
2022-11-11T21:40:42.851Z,112.40
2022-11-11T21:43:44.409Z,116.60
2022-11-11T21:46:36.044Z,115.60
2022-11-11T21:49:46.197Z,114.80
2022-11-11T21:52:37.138Z,112.30
2022-11-11T21:55:32.954Z,103.10
2022-11-11T21:58:21.152Z,98.70
2022-11-11T22:01:27.542Z,112.30
2022-11-11T22:04:18.539Z,105.10
2022-11-11T22:07:16.481Z,106.00
2022-11-11T22:10:06.926Z,104.00
2022-11-11T22:13:03.256Z,106.60
2022-11-11T22:16:00.306Z,106.10
2022-11-11T22:18:52.840Z,115.40
2022-11-11T22:21:47.120Z,111.20
2022-11-11T22:24:37.360Z,117.60
2022-11-11T22:27:46.493Z,111.00
2022-11-11T22:30:35.354Z,109.80
2022-11-11T22:33:26.425Z,112.90
2022-11-11T22:36:21.862Z,114.60
2022-11-11T22:39:21.790Z,121.30
2022-11-11T22:42:09.605Z,113.90
2022-11-11T22:44:58.683Z,115.20
2022-11-11T22:47:50.925Z,105.10
2022-11-11T22:50:45.843Z,113.30
2022-11-11T22:53:34.172Z,103.10
2022-11-11T22:56:22.377Z,112.50
2022-11-11T22:59:10.040Z,110.00
2022-11-11T23:01:58.113Z,116.20
2022-11-11T23:04:47.084Z,108.90
2022-11-11T23:07:39.122Z,108.10
2022-11-11T23:10:27.122Z,102.50
2022-11-11T23:13:18.150Z,100.10
2022-11-11T23:16:09.994Z,106.50
2022-11-11T23:19:01.812Z,103.20
2022-11-11T23:21:49.941Z,99.40
2022-11-11T23:24:44.103Z,100.20
2022-11-11T23:27:33.298Z,91.20
2022-11-11T23:30:23.584Z,96.50
2022-11-11T23:33:11.534Z,99.70
2022-11-11T23:36:04.694Z,107.40
2022-11-11T23:38:53.216Z,96.90
2022-11-11T23:41:41.124Z,97.80
2022-11-11T23:44:28.734Z,86.80
2022-11-11T23:47:16.668Z,96.40
2022-11-11T23:50:08.021Z,97.00
2022-11-11T23:52:56.679Z,91.20
2022-11-11T23:55:45.075Z,96.30
2022-11-11T23:58:33.238Z,86.90
